sensor_id;sensor_type;location;lat;lon;timestamp;pressure;altitude;pressure_sealevel;temperature;humidity
13968;BME280;39536;52.198;9.920;2023-05-12T00:02:24;100744.56;;;14.19;100.00
13968;BME280;39536;52.198;9.920;2023-05-12T00:04:52;100744.66;;;14.18;100.00
13968;BME280;39536;52.198;9.920;2023-05-12T00:07:20;100745.56;;;14.17;100.00
13968;BME280;39536;52.198;9.920;2023-05-12T00:09:47;100743.88;;;14.16;100.00
13968;BME280;39536;52.198;9.920;2023-05-12T00:12:13;100733.56;;;14.11;100.00
13968;BME280;39536;52.198;9.920;2023-05-12T00:14:39;100738.69;;;14.14;100.00
13968;BME280;39536;52.198;9.920;2023-05-12T00:17:06;100741.31;;;14.14;100.00
13968;BME280;39536;52.198;9.920;2023-05-12T00:19:34;100743.78;;;14.17;100.00
13968;BME280;39536;52.198;9.920;2023-05-12T00:22:00;100743.06;;;14.14;100.00
13968;BME280;39536;52.198;9.920;2023-05-12T00:24:28;100743.91;;;14.14;100.00
13968;BME280;39536;52.198;9.920;2023-05-12T00:26:54;100744.19;;;14.08;100.00
13968;BME280;39536;52.198;9.920;2023-05-12T00:29:21;100745.72;;;13.93;100.00
13968;BME280;39536;52.198;9.920;2023-05-12T00:31:47;100750.38;;;13.86;100.00
13968;BME280;39536;52.198;9.920;2023-05-12T00:34:14;100745.72;;;13.93;100.00
13968;BME280;39536;52.198;9.920;2023-05-12T00:36:40;100751.59;;;13.98;100.00
13968;BME280;39536;52.198;9.920;2023-05-12T00:39:06;100760.25;;;14.00;100.00
13968;BME280;39536;52.198;9.920;2023-05-12T00:41:35;100762.41;;;13.91;100.00
13968;BME280;39536;52.198;9.920;2023-05-12T00:44:02;100757.34;;;13.86;100.00
13968;BME280;39536;52.198;9.920;2023-05-12T00:46:28;100767.84;;;13.86;100.00
13968;BME280;39536;52.198;9.920;2023-05-12T00:48:55;100764.59;;;13.81;100.00
13968;BME280;39536;52.198;9.920;2023-05-12T00:51:22;100760.91;;;13.65;100.00
13968;BME280;39536;52.198;9.920;2023-05-12T00:53:48;100756.81;;;13.57;100.00
13968;BME280;39536;52.198;9.920;2023-05-12T00:56:16;100768.13;;;13.58;100.00
13968;BME280;39536;52.198;9.920;2023-05-12T00:58:44;100759.84;;;13.69;100.00
13968;BME280;39536;52.198;9.920;2023-05-12T01:01:10;100752.50;;;13.77;100.00
13968;BME280;39536;52.198;9.920;2023-05-12T01:03:37;100752.13;;;13.86;100.00
13968;BME280;39536;52.198;9.920;2023-05-12T01:06:09;100755.00;;;13.80;100.00
13968;BME280;39536;52.198;9.920;2023-05-12T01:08:37;100761.84;;;13.84;100.00
13968;BME280;39536;52.198;9.920;2023-05-12T01:11:04;100768.03;;;13.81;100.00
13968;BME280;39536;52.198;9.920;2023-05-12T01:13:30;100756.69;;;13.60;100.00
13968;BME280;39536;52.198;9.920;2023-05-12T01:15:59;100763.94;;;13.33;100.00
13968;BME280;39536;52.198;9.920;2023-05-12T01:18:27;100757.78;;;13.34;100.00
13968;BME280;39536;52.198;9.920;2023-05-12T01:20:54;100774.44;;;13.32;100.00
13968;BME280;39536;52.198;9.920;2023-05-12T01:23:23;100765.69;;;13.33;100.00
13968;BME280;39536;52.198;9.920;2023-05-12T01:25:53;100766.47;;;13.35;100.00
13968;BME280;39536;52.198;9.920;2023-05-12T01:28:21;100773.41;;;13.36;100.00
13968;BME280;39536;52.198;9.920;2023-05-12T01:30:48;100770.31;;;13.26;100.00
13968;BME280;39536;52.198;9.920;2023-05-12T01:33:15;100779.94;;;13.26;100.00
13968;BME280;39536;52.198;9.920;2023-05-12T01:35:42;100786.41;;;13.15;100.00
13968;BME280;39536;52.198;9.920;2023-05-12T01:38:08;100787.94;;;13.21;100.00
13968;BME280;39536;52.198;9.920;2023-05-12T01:40:35;100786.09;;;13.25;100.00
13968;BME280;39536;52.198;9.920;2023-05-12T01:43:01;100783.34;;;13.28;100.00
13968;BME280;39536;52.198;9.920;2023-05-12T01:45:29;100792.16;;;13.24;100.00
13968;BME280;39536;52.198;9.920;2023-05-12T01:47:55;100789.22;;;13.33;100.00
13968;BME280;39536;52.198;9.920;2023-05-12T01:50:22;100789.09;;;13.36;100.00
13968;BME280;39536;52.198;9.920;2023-05-12T01:52:48;100779.75;;;13.30;100.00
13968;BME280;39536;52.198;9.920;2023-05-12T01:55:15;100779.75;;;13.30;100.00
13968;BME280;39536;52.198;9.920;2023-05-12T01:57:41;100776.91;;;13.36;100.00
13968;BME280;39536;52.198;9.920;2023-05-12T02:00:09;100785.38;;;13.42;100.00
13968;BME280;39536;52.198;9.920;2023-05-12T02:02:38;100781.00;;;13.42;100.00
13968;BME280;39536;52.198;9.920;2023-05-12T02:05:05;100786.97;;;13.46;100.00
13968;BME280;39536;52.198;9.920;2023-05-12T02:07:34;100787.72;;;13.49;100.00
13968;BME280;39536;52.198;9.920;2023-05-12T02:10:01;100787.47;;;13.55;100.00
13968;BME280;39536;52.198;9.920;2023-05-12T02:12:28;100784.06;;;13.53;100.00
13968;BME280;39536;52.198;9.920;2023-05-12T02:14:54;100790.09;;;13.55;100.00
13968;BME280;39536;52.198;9.920;2023-05-12T02:17:20;100793.41;;;13.59;100.00
13968;BME280;39536;52.198;9.920;2023-05-12T02:19:50;100793.22;;;13.63;100.00
13968;BME280;39536;52.198;9.920;2023-05-12T02:22:16;100790.25;;;13.51;100.00
13968;BME280;39536;52.198;9.920;2023-05-12T02:24:43;100798.78;;;13.56;100.00
13968;BME280;39536;52.198;9.920;2023-05-12T02:27:09;100792.88;;;13.51;100.00
13968;BME280;39536;52.198;9.920;2023-05-12T02:29:36;100795.69;;;13.46;100.00
13968;BME280;39536;52.198;9.920;2023-05-12T02:32:03;100794.09;;;13.42;100.00
13968;BME280;39536;52.198;9.920;2023-05-12T02:34:29;100789.56;;;13.46;100.00
13968;BME280;39536;52.198;9.920;2023-05-12T02:36:57;100789.34;;;13.52;100.00
13968;BME280;39536;52.198;9.920;2023-05-12T02:39:24;100786.00;;;13.48;100.00
13968;BME280;39536;52.198;9.920;2023-05-12T02:41:50;100781.56;;;13.50;100.00
13968;BME280;39536;52.198;9.920;2023-05-12T02:44:16;100788.22;;;13.37;100.00
13968;BME280;39536;52.198;9.920;2023-05-12T02:46:46;100788.00;;;13.42;100.00
13968;BME280;39536;52.198;9.920;2023-05-12T02:49:12;100795.75;;;13.45;100.00
13968;BME280;39536;52.198;9.920;2023-05-12T02:51:39;100799.16;;;13.47;100.00
13968;BME280;39536;52.198;9.920;2023-05-12T02:54:07;100792.88;;;13.51;100.00
13968;BME280;39536;52.198;9.920;2023-05-12T02:56:33;100785.47;;;13.40;100.00
13968;BME280;39536;52.198;9.920;2023-05-12T02:59:00;100784.88;;;13.33;100.00
13968;BME280;39536;52.198;9.920;2023-05-12T03:01:26;100799.94;;;13.27;100.00
13968;BME280;39536;52.198;9.920;2023-05-12T03:03:53;100806.69;;;13.32;100.00
13968;BME280;39536;52.198;9.920;2023-05-12T03:06:19;100792.63;;;13.35;100.00
13968;BME280;39536;52.198;9.920;2023-05-12T03:08:46;100785.84;;;13.31;100.00
13968;BME280;39536;52.198;9.920;2023-05-12T03:11:13;100787.38;;;13.36;100.00
13968;BME280;39536;52.198;9.920;2023-05-12T03:13:40;100794.28;;;13.37;100.00
13968;BME280;39536;52.198;9.920;2023-05-12T03:16:06;100786.47;;;13.36;100.00
13968;BME280;39536;52.198;9.920;2023-05-12T03:21:00;100799.53;;;13.37;100.00
13968;BME280;39536;52.198;9.920;2023-05-12T03:23:27;100795.13;;;13.38;100.00
13968;BME280;39536;52.198;9.920;2023-05-12T03:25:54;100799.75;;;13.31;100.00
13968;BME280;39536;52.198;9.920;2023-05-12T03:28:22;100804.03;;;13.34;100.00
13968;BME280;39536;52.198;9.920;2023-05-12T03:30:49;100802.88;;;13.41;100.00
13968;BME280;39536;52.198;9.920;2023-05-12T03:33:15;100795.75;;;13.45;100.00
13968;BME280;39536;52.198;9.920;2023-05-12T03:35:42;100784.53;;;13.41;100.00
13968;BME280;39536;52.198;9.920;2023-05-12T03:38:08;100787.47;;;13.33;100.00
13968;BME280;39536;52.198;9.920;2023-05-12T03:40:35;100800.59;;;13.32;100.00
13968;BME280;39536;52.198;9.920;2023-05-12T03:43:01;100821.66;;;13.29;100.00
13968;BME280;39536;52.198;9.920;2023-05-12T03:45:29;100824.13;;;13.33;100.00
13968;BME280;39536;52.198;9.920;2023-05-12T03:47:55;100816.72;;;13.21;100.00
13968;BME280;39536;52.198;9.920;2023-05-12T03:50:22;100809.09;;;13.15;100.00
13968;BME280;39536;52.198;9.920;2023-05-12T03:52:49;100813.97;;;13.24;100.00
13968;BME280;39536;52.198;9.920;2023-05-12T03:55:20;100824.22;;;13.30;100.00
13968;BME280;39536;52.198;9.920;2023-05-12T03:57:46;100832.13;;;13.29;100.00
13968;BME280;39536;52.198;9.920;2023-05-12T04:00:13;100837.94;;;13.37;100.00
13968;BME280;39536;52.198;9.920;2023-05-12T04:02:41;100840.47;;;13.38;100.00
13968;BME280;39536;52.198;9.920;2023-05-12T04:05:08;100831.09;;;13.33;100.00
13968;BME280;39536;52.198;9.920;2023-05-12T04:07:35;100835.72;;;13.26;100.00
13968;BME280;39536;52.198;9.920;2023-05-12T04:10:01;100829.34;;;13.33;100.00
13968;BME280;39536;52.198;9.920;2023-05-12T04:12:28;100829.22;;;13.36;100.00
13968;BME280;39536;52.198;9.920;2023-05-12T04:14:54;100836.97;;;13.39;100.00
13968;BME280;39536;52.198;9.920;2023-05-12T04:17:21;100835.97;;;13.42;100.00
13968;BME280;39536;52.198;9.920;2023-05-12T04:19:49;100841.16;;;13.44;100.00
13968;BME280;39536;52.198;9.920;2023-05-12T04:22:16;100830.56;;;13.47;100.00
13968;BME280;39536;52.198;9.920;2023-05-12T04:24:43;100849.59;;;13.50;100.00
13968;BME280;39536;52.198;9.920;2023-05-12T04:27:09;100848.81;;;13.48;100.00
13968;BME280;39536;52.198;9.920;2023-05-12T04:29:36;100850.66;;;13.46;100.00
13968;BME280;39536;52.198;9.920;2023-05-12T04:32:02;100857.38;;;13.52;100.00
13968;BME280;39536;52.198;9.920;2023-05-12T04:34:29;100865.06;;;13.56;100.00
13968;BME280;39536;52.198;9.920;2023-05-12T04:36:57;100861.53;;;13.57;100.00
13968;BME280;39536;52.198;9.920;2023-05-12T04:39:23;100857.69;;;13.66;100.00
13968;BME280;39536;52.198;9.920;2023-05-12T04:41:50;100864.56;;;13.69;100.00
13968;BME280;39536;52.198;9.920;2023-05-12T04:44:16;100863.78;;;13.67;100.00
13968;BME280;39536;52.198;9.920;2023-05-12T04:46:42;100867.19;;;13.69;100.00
13968;BME280;39536;52.198;9.920;2023-05-12T04:49:09;100873.09;;;13.74;100.00
13968;BME280;39536;52.198;9.920;2023-05-12T04:51:36;100864.44;;;13.72;100.00
13968;BME280;39536;52.198;9.920;2023-05-12T04:54:07;100866.50;;;13.63;100.00
13968;BME280;39536;52.198;9.920;2023-05-12T04:56:34;100875.91;;;13.69;100.00
13968;BME280;39536;52.198;9.920;2023-05-12T04:59:01;100869.72;;;13.70;100.00
13968;BME280;39536;52.198;9.920;2023-05-12T05:01:27;100869.50;;;13.76;100.00
13968;BME280;39536;52.198;9.920;2023-05-12T05:03:54;100878.19;;;13.77;100.00
13968;BME280;39536;52.198;9.920;2023-05-12T05:06:20;100875.31;;;13.83;100.00
13968;BME280;39536;52.198;9.920;2023-05-12T05:08:46;100874.31;;;13.87;100.00
13968;BME280;39536;52.198;9.920;2023-05-12T05:11:14;100878.50;;;13.91;100.00
13968;BME280;39536;52.198;9.920;2023-05-12T05:13:41;100881.78;;;13.96;100.00
13968;BME280;39536;52.198;9.920;2023-05-12T05:16:07;100874.81;;;13.95;100.00
13968;BME280;39536;52.198;9.920;2023-05-12T05:18:34;100880.75;;;14.00;100.00
13968;BME280;39536;52.198;9.920;2023-05-12T05:21:02;100884.03;;;14.05;100.00
13968;BME280;39536;52.198;9.920;2023-05-12T05:23:28;100880.28;;;14.11;100.00
13968;BME280;39536;52.198;9.920;2023-05-12T05:25:55;100880.09;;;14.16;100.00
13968;BME280;39536;52.198;9.920;2023-05-12T05:28:22;100875.41;;;14.24;100.00
13968;BME280;39536;52.198;9.920;2023-05-12T05:30:50;100877.22;;;14.22;100.00
13968;BME280;39536;52.198;9.920;2023-05-12T05:33:17;100888.25;;;14.30;100.00
13968;BME280;39536;52.198;9.920;2023-05-12T05:35:44;100889.59;;;14.39;100.00
13968;BME280;39536;52.198;9.920;2023-05-12T05:38:10;100891.19;;;14.43;100.00
13968;BME280;39536;52.198;9.920;2023-05-12T05:40:37;100886.66;;;14.46;100.00
13968;BME280;39536;52.198;9.920;2023-05-12T05:43:03;100895.06;;;14.54;100.00
13968;BME280;39536;52.198;9.920;2023-05-12T05:45:31;100890.34;;;14.63;100.00
13968;BME280;39536;52.198;9.920;2023-05-12T05:47:58;100892.56;;;14.72;100.00
13968;BME280;39536;52.198;9.920;2023-05-12T05:50:24;100897.69;;;14.75;100.00
13968;BME280;39536;52.198;9.920;2023-05-12T05:52:51;100893.16;;;14.78;100.00
13968;BME280;39536;52.198;9.920;2023-05-12T05:55:19;100897.59;;;14.76;100.00
13968;BME280;39536;52.198;9.920;2023-05-12T05:57:45;100892.16;;;14.81;100.00
13968;BME280;39536;52.198;9.920;2023-05-12T06:00:13;100903.63;;;14.78;100.00
13968;BME280;39536;52.198;9.920;2023-05-12T06:02:41;100905.28;;;14.81;100.00
13968;BME280;39536;52.198;9.920;2023-05-12T06:05:08;100901.50;;;14.68;100.00
13968;BME280;39536;52.198;9.920;2023-05-12T06:07:36;100900.00;;;14.62;100.00
13968;BME280;39536;52.198;9.920;2023-05-12T06:10:03;100900.91;;;14.61;100.00
13968;BME280;39536;52.198;9.920;2023-05-12T06:12:30;100900.84;;;14.63;100.00
13968;BME280;39536;52.198;9.920;2023-05-12T06:14:56;100914.75;;;14.65;100.00
13968;BME280;39536;52.198;9.920;2023-05-12T06:17:23;100911.00;;;14.70;100.00
13968;BME280;39536;52.198;9.920;2023-05-12T06:19:51;100916.31;;;14.69;100.00
13968;BME280;39536;52.198;9.920;2023-05-12T06:22:17;100918.88;;;14.70;100.00
13968;BME280;39536;52.198;9.920;2023-05-12T06:24:44;100926.25;;;14.61;100.00
13968;BME280;39536;52.198;9.920;2023-05-12T06:27:10;100923.31;;;14.68;100.00
13968;BME280;39536;52.198;9.920;2023-05-12T06:29:37;100925.94;;;14.68;100.00
13968;BME280;39536;52.198;9.920;2023-05-12T06:32:04;100927.19;;;14.80;100.00
13968;BME280;39536;52.198;9.920;2023-05-12T06:34:31;100927.81;;;14.85;100.00
13968;BME280;39536;52.198;9.920;2023-05-12T06:36:59;100926.66;;;14.92;100.00
13968;BME280;39536;52.198;9.920;2023-05-12T06:39:25;100921.00;;;15.01;100.00
13968;BME280;39536;52.198;9.920;2023-05-12T06:41:52;100920.94;;;14.83;100.00
13968;BME280;39536;52.198;9.920;2023-05-12T06:44:18;100924.47;;;14.82;100.00
13968;BME280;39536;52.198;9.920;2023-05-12T06:46:45;100929.41;;;14.89;100.00
13968;BME280;39536;52.198;9.920;2023-05-12T06:49:11;100932.56;;;14.77;100.00
13968;BME280;39536;52.198;9.920;2023-05-12T06:51:38;100927.53;;;14.91;100.00
13968;BME280;39536;52.198;9.920;2023-05-12T06:54:06;100930.47;;;15.04;100.00
13968;BME280;39536;52.198;9.920;2023-05-12T06:56:32;100938.44;;;15.02;100.00
13968;BME280;39536;52.198;9.920;2023-05-12T06:58:59;100954.88;;;15.06;100.00
13968;BME280;39536;52.198;9.920;2023-05-12T07:01:27;100950.63;;;15.04;100.00
13968;BME280;39536;52.198;9.920;2023-05-12T07:03:53;100949.13;;;15.17;100.00
13968;BME280;39536;52.198;9.920;2023-05-12T07:06:20;100943.69;;;15.21;100.00
13968;BME280;39536;52.198;9.920;2023-05-12T07:08:47;100934.00;;;15.23;100.00
13968;BME280;39536;52.198;9.920;2023-05-12T07:11:15;100943.59;;;15.23;100.00
13968;BME280;39536;52.198;9.920;2023-05-12T07:13:44;100943.59;;;15.23;100.00
13968;BME280;39536;52.198;9.920;2023-05-12T07:16:10;100931.84;;;15.32;100.00
13968;BME280;39536;52.198;9.920;2023-05-12T07:18:37;100935.13;;;15.18;100.00
13968;BME280;39536;52.198;9.920;2023-05-12T07:21:03;100940.56;;;15.32;100.00
13968;BME280;39536;52.198;9.920;2023-05-12T07:23:30;100938.72;;;15.53;100.00
13968;BME280;39536;52.198;9.920;2023-05-12T07:25:56;100940.66;;;15.68;100.00
13968;BME280;39536;52.198;9.920;2023-05-12T07:28:24;100943.34;;;15.86;100.00
13968;BME280;39536;52.198;9.920;2023-05-12T07:30:51;100940.72;;;15.86;100.00
13968;BME280;39536;52.198;9.920;2023-05-12T07:33:17;100951.50;;;15.99;100.00
13968;BME280;39536;52.198;9.920;2023-05-12T07:35:44;100942.72;;;16.17;100.00
13968;BME280;39536;52.198;9.920;2023-05-12T07:38:11;100939.78;;;16.23;100.00
13968;BME280;39536;52.198;9.920;2023-05-12T07:40:37;100943.84;;;16.29;100.00
13968;BME280;39536;52.198;9.920;2023-05-12T07:43:04;100947.50;;;16.44;100.00
13968;BME280;39536;52.198;9.920;2023-05-12T07:45:32;100944.81;;;16.45;100.00
13968;BME280;39536;52.198;9.920;2023-05-12T07:47:58;100945.94;;;16.57;100.00
13968;BME280;39536;52.198;9.920;2023-05-12T07:50:24;100943.47;;;16.71;100.00
13968;BME280;39536;52.198;9.920;2023-05-12T07:52:52;100939.06;;;16.72;100.00
13968;BME280;39536;52.198;9.920;2023-05-12T07:55:20;100942.25;;;16.78;100.00
13968;BME280;39536;52.198;9.920;2023-05-12T07:57:48;100944.94;;;16.94;100.00
13968;BME280;39536;52.198;9.920;2023-05-12T08:00:15;100944.13;;;17.09;100.00
13968;BME280;39536;52.198;9.920;2023-05-12T08:02:42;100942.44;;;17.08;100.00
13968;BME280;39536;52.198;9.920;2023-05-12T08:05:09;100943.28;;;17.25;100.00
13968;BME280;39536;52.198;9.920;2023-05-12T08:07:37;100944.00;;;17.44;100.00
13968;BME280;39536;52.198;9.920;2023-05-12T08:10:04;100940.28;;;17.64;100.00
13968;BME280;39536;52.198;9.920;2023-05-12T08:12:32;100945.78;;;17.60;100.00
13968;BME280;39536;52.198;9.920;2023-05-12T08:14:58;100944.94;;;17.59;100.00
13968;BME280;39536;52.198;9.920;2023-05-12T08:17:25;100941.56;;;17.73;100.00
13968;BME280;39536;52.198;9.920;2023-05-12T08:19:53;100946.38;;;17.65;100.00
13968;BME280;39536;52.198;9.920;2023-05-12T08:22:19;100945.56;;;17.80;100.00
13968;BME280;39536;52.198;9.920;2023-05-12T08:24:46;100945.97;;;18.04;100.00
13968;BME280;39536;52.198;9.920;2023-05-12T08:27:12;100944.22;;;18.19;100.00
13968;BME280;39536;52.198;9.920;2023-05-12T08:29:39;100941.41;;;18.22;100.00
13968;BME280;39536;52.198;9.920;2023-05-12T08:32:05;100940.25;;;18.42;100.00
13968;BME280;39536;52.198;9.920;2023-05-12T08:34:32;100937.56;;;18.58;100.00
13968;BME280;39536;52.198;9.920;2023-05-12T08:37:00;100930.22;;;18.63;100.00
13968;BME280;39536;52.198;9.920;2023-05-12T08:39:27;100934.50;;;18.50;100.00
13968;BME280;39536;52.198;9.920;2023-05-12T08:42:00;100934.63;;;18.62;100.00
13968;BME280;39536;52.198;9.920;2023-05-12T08:44:33;100934.91;;;18.72;100.00
13968;BME280;39536;52.198;9.920;2023-05-12T08:47:00;100932.72;;;18.80;100.00
13968;BME280;39536;52.198;9.920;2023-05-12T08:49:31;100933.94;;;18.89;100.00
13968;BME280;39536;52.198;9.920;2023-05-12T08:52:00;100937.16;;;18.80;100.00
13968;BME280;39536;52.198;9.920;2023-05-12T08:54:28;100944.78;;;18.84;100.00
13968;BME280;39536;52.198;9.920;2023-05-12T08:56:55;100940.16;;;19.02;100.00
13968;BME280;39536;52.198;9.920;2023-05-12T08:59:22;100940.53;;;19.25;100.00
13968;BME280;39536;52.198;9.920;2023-05-12T09:01:49;100935.69;;;19.46;100.00
13968;BME280;39536;52.198;9.920;2023-05-12T09:04:16;100947.59;;;19.67;100.00
13968;BME280;39536;52.198;9.920;2023-05-12T09:06:43;100950.28;;;19.80;100.00
13968;BME280;39536;52.198;9.920;2023-05-12T09:09:12;100953.25;;;19.75;100.00
13968;BME280;39536;52.198;9.920;2023-05-12T09:11:40;100950.41;;;19.78;100.00
13968;BME280;39536;52.198;9.920;2023-05-12T09:14:09;100945.00;;;19.80;100.00
13968;BME280;39536;52.198;9.920;2023-05-12T09:16:40;100941.78;;;20.02;100.00
13968;BME280;39536;52.198;9.920;2023-05-12T09:19:08;100946.28;;;20.14;100.00
13968;BME280;39536;52.198;9.920;2023-05-12T09:21:35;100945.63;;;20.11;100.00
13968;BME280;39536;52.198;9.920;2023-05-12T09:24:03;100944.34;;;20.03;100.00
13968;BME280;39536;52.198;9.920;2023-05-12T09:26:44;100941.84;;;20.27;100.00
13968;BME280;39536;52.198;9.920;2023-05-12T09:29:11;100939.13;;;20.29;100.00
13968;BME280;39536;52.198;9.920;2023-05-12T09:31:38;100941.09;;;20.52;100.00
13968;BME280;39536;52.198;9.920;2023-05-12T09:34:06;100948.94;;;20.67;100.00
13968;BME280;39536;52.198;9.920;2023-05-12T09:36:34;100943.88;;;20.64;100.00
13968;BME280;39536;52.198;9.920;2023-05-12T09:39:02;100949.72;;;20.82;100.00
13968;BME280;39536;52.198;9.920;2023-05-12T09:41:29;100950.66;;;20.93;100.00
13968;BME280;39536;52.198;9.920;2023-05-12T09:43:59;100954.13;;;20.68;100.00
13968;BME280;39536;52.198;9.920;2023-05-12T09:46:25;100953.84;;;20.46;100.00
13968;BME280;39536;52.198;9.920;2023-05-12T09:48:54;100956.22;;;20.50;100.00
13968;BME280;39536;52.198;9.920;2023-05-12T09:51:21;100950.00;;;20.77;100.00
13968;BME280;39536;52.198;9.920;2023-05-12T09:53:48;100951.72;;;20.91;100.00
13968;BME280;39536;52.198;9.920;2023-05-12T09:56:15;100956.59;;;20.97;100.00
13968;BME280;39536;52.198;9.920;2023-05-12T09:58:43;100948.84;;;20.94;100.00
13968;BME280;39536;52.198;9.920;2023-05-12T10:01:13;100953.94;;;20.97;100.00
13968;BME280;39536;52.198;9.920;2023-05-12T10:03:41;100952.97;;;20.98;100.00
13968;BME280;39536;52.198;9.920;2023-05-12T10:06:11;100956.59;;;21.10;100.00
13968;BME280;39536;52.198;9.920;2023-05-12T10:08:43;100945.34;;;21.06;100.00
13968;BME280;39536;52.198;9.920;2023-05-12T10:11:11;100945.75;;;21.26;100.00
13968;BME280;39536;52.198;9.920;2023-05-12T10:13:37;100945.63;;;21.40;100.00
13968;BME280;39536;52.198;9.920;2023-05-12T10:16:06;100944.69;;;21.65;100.00
13968;BME280;39536;52.198;9.920;2023-05-12T10:18:34;100956.91;;;21.67;100.00
13968;BME280;39536;52.198;9.920;2023-05-12T10:21:01;100950.13;;;21.63;100.00
13968;BME280;39536;52.198;9.920;2023-05-12T10:23:28;100955.06;;;21.81;100.00
13968;BME280;39536;52.198;9.920;2023-05-12T10:25:56;100953.47;;;21.78;100.00
13968;BME280;39536;52.198;9.920;2023-05-12T10:28:26;100954.59;;;21.63;100.00
13968;BME280;39536;52.198;9.920;2023-05-12T10:30:53;100952.03;;;21.61;100.00
13968;BME280;39536;52.198;9.920;2023-05-12T10:33:20;100952.47;;;21.55;100.00
13968;BME280;39536;52.198;9.920;2023-05-12T10:35:48;100953.41;;;21.67;100.00
13968;BME280;39536;52.198;9.920;2023-05-12T10:38:15;100959.19;;;21.85;100.00
13968;BME280;39536;52.198;9.920;2023-05-12T10:40:50;100952.69;;;21.89;100.00
13968;BME280;39536;52.198;9.920;2023-05-12T10:43:21;100954.94;;;22.06;100.00
13968;BME280;39536;52.198;9.920;2023-05-12T10:46:06;100959.56;;;22.16;100.00
13968;BME280;39536;52.198;9.920;2023-05-12T10:48:33;100958.91;;;22.01;100.00
13968;BME280;39536;52.198;9.920;2023-05-12T10:51:07;100960.50;;;22.14;100.00
13968;BME280;39536;52.198;9.920;2023-05-12T10:53:34;100959.91;;;22.11;98.59
13968;BME280;39536;52.198;9.920;2023-05-12T10:56:02;100946.41;;;22.14;100.00
13968;BME280;39536;52.198;9.920;2023-05-12T10:58:29;100954.44;;;22.25;100.00
13968;BME280;39536;52.198;9.920;2023-05-12T11:01:03;100955.34;;;22.37;100.00
13968;BME280;39536;52.198;9.920;2023-05-12T11:03:30;100953.06;;;22.44;100.00
13968;BME280;39536;52.198;9.920;2023-05-12T11:05:58;100954.19;;;22.52;100.00
13968;BME280;39536;52.198;9.920;2023-05-12T11:08:26;100960.09;;;22.56;100.00
13968;BME280;39536;52.198;9.920;2023-05-12T11:10:53;100945.38;;;22.63;100.00
13968;BME280;39536;52.198;9.920;2023-05-12T11:13:20;100951.19;;;22.79;100.00
13968;BME280;39536;52.198;9.920;2023-05-12T11:15:47;100949.28;;;22.81;98.87
13968;BME280;39536;52.198;9.920;2023-05-12T11:18:19;100942.44;;;23.01;99.22
13968;BME280;39536;52.198;9.920;2023-05-12T11:20:45;100941.25;;;23.05;95.26
13968;BME280;39536;52.198;9.920;2023-05-12T11:23:22;100940.84;;;23.44;97.45
13968;BME280;39536;52.198;9.920;2023-05-12T11:25:50;100949.75;;;23.77;96.80
13968;BME280;39536;52.198;9.920;2023-05-12T11:28:17;100943.25;;;24.02;95.63
13968;BME280;39536;52.198;9.920;2023-05-12T11:30:50;100942.66;;;24.30;97.84
13968;BME280;39536;52.198;9.920;2023-05-12T11:33:18;100935.09;;;24.47;91.42
13968;BME280;39536;52.198;9.920;2023-05-12T11:35:45;100935.47;;;24.63;88.67
13968;BME280;39536;52.198;9.920;2023-05-12T11:38:15;100937.28;;;24.83;88.09
13968;BME280;39536;52.198;9.920;2023-05-12T11:40:42;100937.88;;;24.66;87.17
13968;BME280;39536;52.198;9.920;2023-05-12T11:43:11;100937.88;;;24.66;85.09
13968;BME280;39536;52.198;9.920;2023-05-12T11:45:39;100942.31;;;24.56;82.31
13968;BME280;39536;52.198;9.920;2023-05-12T11:48:06;100944.81;;;24.57;78.58
13968;BME280;39536;52.198;9.920;2023-05-12T11:50:36;100935.50;;;24.94;83.56
13968;BME280;39536;52.198;9.920;2023-05-12T11:53:03;100933.97;;;25.01;75.46
13968;BME280;39536;52.198;9.920;2023-05-12T11:55:29;100937.34;;;25.24;75.28
13968;BME280;39536;52.198;9.920;2023-05-12T11:57:59;100938.72;;;24.97;78.17
13968;BME280;39536;52.198;9.920;2023-05-12T12:00:33;100946.59;;;24.47;76.15
13968;BME280;39536;52.198;9.920;2023-05-12T12:03:11;100944.56;;;24.07;82.38
13968;BME280;39536;52.198;9.920;2023-05-12T12:05:39;100947.84;;;23.56;84.95
13968;BME280;39536;52.198;9.920;2023-05-12T12:08:08;100950.06;;;23.40;83.29
13968;BME280;39536;52.198;9.920;2023-05-12T12:10:36;100952.72;;;23.40;84.92
13968;BME280;39536;52.198;9.920;2023-05-12T12:13:03;100959.69;;;23.29;83.85
13968;BME280;39536;52.198;9.920;2023-05-12T12:15:31;100948.38;;;23.27;86.69
13968;BME280;39536;52.198;9.920;2023-05-12T12:17:57;100946.44;;;23.18;89.61
13968;BME280;39536;52.198;9.920;2023-05-12T12:20:24;100944.63;;;23.19;100.00
13968;BME280;39536;52.198;9.920;2023-05-12T12:22:51;100953.16;;;23.45;92.04
13968;BME280;39536;52.198;9.920;2023-05-12T12:25:18;100944.66;;;23.85;87.58
13968;BME280;39536;52.198;9.920;2023-05-12T12:27:45;100954.25;;;24.29;80.38
13968;BME280;39536;52.198;9.920;2023-05-12T12:30:13;100946.69;;;24.66;80.32
13968;BME280;39536;52.198;9.920;2023-05-12T12:32:41;100939.22;;;24.81;76.81
13968;BME280;39536;52.198;9.920;2023-05-12T12:35:08;100945.69;;;24.88;74.75
13968;BME280;39536;52.198;9.920;2023-05-12T12:37:35;100935.50;;;24.94;65.91
13968;BME280;39536;52.198;9.920;2023-05-12T12:40:03;100936.94;;;25.07;61.80
13968;BME280;39536;52.198;9.920;2023-05-12T12:42:33;100943.63;;;25.23;70.48
13968;BME280;39536;52.198;9.920;2023-05-12T12:45:00;100937.13;;;25.56;68.48